Time;durP1;ratioP1;P1;durP2;ratioP2;P2;SDS_P1;SDS_P2;PMS_P1;PMS_P2;Temp;Humidity;BMP_temperature;BMP_pressure;BME280_temperature;BME280_humidity;BME280_pressure;Samples;Min_cycle;Max_cycle;Signal;HPM_P1;HPM_P2
2023/05/18 00:00:46;;;;;;;5.88;2.80;;;;;;;12.44;100.00;101695.13;5040309;28;20098;-76
2023/05/18 00:03:14;;;;;;;9.05;3.47;;;;;;;12.45;100.00;101694.16;5042728;28;20029;-75
2023/05/18 00:05:42;;;;;;;8.18;3.40;;;;;;;12.41;100.00;101688.25;5050317;28;20103;-75
2023/05/18 00:08:10;;;;;;;5.03;3.00;;;;;;;12.42;100.00;101691.75;5045260;28;20469;-76
2023/05/18 00:10:38;;;;;;;11.05;3.53;;;;;;;12.38;100.00;101685.84;5046379;28;20037;-76
2023/05/18 00:13:07;;;;;;;8.13;3.25;;;;;;;12.34;100.00;101682.59;5049491;28;20037;-76
2023/05/18 00:15:35;;;;;;;9.05;3.88;;;;;;;12.26;100.00;101683.22;5047789;28;20040;-77
2023/05/18 00:18:03;;;;;;;8.90;4.22;;;;;;;12.20;100.00;101677.59;5046934;28;20488;-76
2023/05/18 00:20:30;;;;;;;8.30;4.50;;;;;;;12.11;100.00;101679.19;5041363;28;20037;-77
2023/05/18 00:23:01;;;;;;;10.68;4.25;;;;;;;12.09;100.00;101670.53;5035702;28;20025;-77
2023/05/18 00:25:28;;;;;;;7.45;4.03;;;;;;;12.02;100.00;101678.91;5036243;28;20502;-77
2023/05/18 00:27:56;;;;;;;11.10;3.90;;;;;;;12.02;100.00;101678.91;5034747;28;20441;-77
2023/05/18 00:30:24;;;;;;;11.05;3.53;;;;;;;11.98;100.00;101677.47;5034382;28;20033;-77
2023/05/18 00:32:53;;;;;;;7.70;4.00;;;;;;;11.96;100.00;101679.41;5037828;28;20034;-77
2023/05/18 00:35:21;;;;;;;8.57;4.40;;;;;;;11.84;100.00;101680.38;5023211;28;20037;-77
2023/05/18 00:37:50;;;;;;;14.50;3.75;;;;;;;11.80;100.00;101674.50;5034881;28;20045;-77
2023/05/18 00:40:20;;;;;;;9.13;4.28;;;;;;;11.79;100.00;101676.31;5018560;28;20642;-77
2023/05/18 00:42:48;;;;;;;9.60;4.00;;;;;;;11.75;100.00;101669.56;5038232;28;20041;-76
2023/05/18 00:45:17;;;;;;;15.35;4.50;;;;;;;11.80;100.00;101671.88;5039126;28;20044;-77
2023/05/18 00:47:46;;;;;;;7.78;4.03;;;;;;;11.73;100.00;101678.59;5052130;28;20722;-77
2023/05/18 00:50:14;;;;;;;7.43;3.70;;;;;;;11.71;100.00;101673.41;5033680;28;20401;-77
2023/05/18 00:52:43;;;;;;;13.75;4.55;;;;;;;11.72;100.00;101676.91;5035362;28;20033;-77
2023/05/18 00:55:13;;;;;;;6.18;3.83;;;;;;;11.69;100.00;101677.97;5032560;28;20128;-77
2023/05/18 00:57:43;;;;;;;8.18;3.70;;;;;;;11.68;100.00;101675.47;5033750;28;20175;-77
2023/05/18 01:00:12;;;;;;;8.43;3.70;;;;;;;11.65;100.00;101669.47;5034916;28;20120;-76
2023/05/18 01:02:44;;;;;;;11.77;3.67;;;;;;;11.61;100.00;101678.59;5035274;28;20095;-76
2023/05/18 01:05:16;;;;;;;10.52;4.13;;;;;;;11.54;100.00;101666.81;5037369;28;20059;-77
2023/05/18 01:07:47;;;;;;;9.88;3.53;;;;;;;11.52;100.00;101669.56;5033701;28;20037;-77
2023/05/18 01:10:19;;;;;;;7.63;3.72;;;;;;;11.51;100.00;101665.25;5034577;28;20370;-77
2023/05/18 01:12:56;;;;;;;10.82;3.78;;;;;;;11.51;100.00;101665.25;5035473;28;20036;-76
2023/05/18 01:15:34;;;;;;;6.57;3.30;;;;;;;11.53;100.00;101671.25;5037300;28;20041;-77
2023/05/18 01:18:42;;;;;;;7.75;3.58;;;;;;;11.56;100.00;101662.25;5031720;28;20032;-77
2023/05/18 01:21:32;;;;;;;7.28;3.58;;;;;;;11.61;100.00;101667.19;5038822;28;20120;-77
2023/05/18 01:24:07;;;;;;;6.57;3.47;;;;;;;11.61;100.00;101665.34;5022547;28;20094;-77
2023/05/18 01:26:38;;;;;;;;;;;;;;;11.53;100.00;101665.13;5036859;28;20033;-77
2023/05/18 01:29:12;;;;;;;6.85;2.97;;;;;;;11.57;100.00;101666.56;5045469;28;20011;-77
2023/05/18 01:31:43;;;;;;;6.55;3.20;;;;;;;11.59;100.00;101675.25;5030635;28;20069;-77
2023/05/18 01:34:12;;;;;;;7.50;3.40;;;;;;;11.61;100.00;101664.53;5032723;28;20099;-77
2023/05/18 01:36:41;;;;;;;7.22;3.75;;;;;;;11.62;100.00;101661.75;5049498;28;20033;-77
2023/05/18 01:39:10;;;;;;;11.15;3.05;;;;;;;11.62;100.00;101672.34;5032542;28;20033;-77
2023/05/18 01:41:51;;;;;;;10.02;3.20;;;;;;;11.65;100.00;101656.22;5031113;28;20044;-77
2023/05/18 01:44:27;;;;;;;4.38;3.35;;;;;;;11.63;100.00;101670.53;5038503;28;20036;-77
2023/05/18 01:47:17;;;;;;;3.95;2.97;;;;;;;11.62;100.00;101656.47;5012356;28;20041;-77
2023/05/18 01:49:56;;;;;;;6.72;3.47;;;;;;;11.59;100.00;101663.81;5035143;28;20104;-77
2023/05/18 01:52:36;;;;;;;8.05;3.35;;;;;;;11.57;100.00;101661.28;5050058;28;20393;-77
2023/05/18 01:55:07;;;;;;;4.65;2.70;;;;;;;11.49;100.00;101655.72;5033718;28;20037;-77
2023/05/18 01:57:41;;;;;;;5.85;3.33;;;;;;;11.47;100.00;101649.69;5034606;28;20060;-77
2023/05/18 02:00:12;;;;;;;10.90;3.50;;;;;;;11.43;100.00;101654.41;5034880;28;20044;-77
2023/05/18 02:02:44;;;;;;;7.22;2.95;;;;;;;11.42;100.00;101652.72;5035424;28;20036;-77
2023/05/18 02:05:15;;;;;;;8.02;3.35;;;;;;;11.37;100.00;101652.25;5013995;28;20052;-77
2023/05/18 02:07:46;;;;;;;10.65;3.55;;;;;;;11.32;100.00;101652.63;5033446;28;20497;-77
2023/05/18 02:10:14;;;;;;;7.15;3.53;;;;;;;11.24;100.00;101655.00;5049120;28;20033;-77
2023/05/18 02:12:42;;;;;;;7.55;3.22;;;;;;;11.25;100.00;101652.25;5034502;28;20030;-77
2023/05/18 02:15:10;;;;;;;5.15;2.90;;;;;;;11.22;100.00;101648.97;5048870;28;20412;-77
2023/05/18 02:17:40;;;;;;;5.05;2.92;;;;;;;11.26;100.00;101651.25;5016699;28;20041;-75
2023/05/18 02:20:12;;;;;;;6.75;3.42;;;;;;;11.25;100.00;101641.66;5018649;28;20033;-75
2023/05/18 02:22:42;;;;;;;5.88;3.15;;;;;;;11.22;100.00;101647.19;5035582;28;20025;-77
2023/05/18 02:25:12;;;;;;;6.40;3.05;;;;;;;11.20;100.00;101650.88;5033791;28;20102;-77
2023/05/18 02:27:41;;;;;;;7.10;2.88;;;;;;;11.17;100.00;101644.03;5032871;28;20037;-75
2023/05/18 02:30:13;;;;;;;6.78;3.42;;;;;;;11.14;100.00;101637.19;5047382;28;20112;-75
2023/05/18 02:32:41;;;;;;;4.22;2.97;;;;;;;11.06;100.00;101644.03;5032342;28;20091;-76
2023/05/18 02:35:09;;;;;;;6.90;2.67;;;;;;;11.05;100.00;101637.91;5037704;28;20029;-77
2023/05/18 02:37:38;;;;;;;5.70;2.60;;;;;;;11.04;100.00;101646.78;5051538;28;20064;-77
2023/05/18 02:40:09;;;;;;;5.35;2.80;;;;;;;11.03;100.00;101648.59;5033111;28;20072;-77
2023/05/18 02:42:37;;;;;;;4.63;2.95;;;;;;;10.96;100.00;101657.13;5031594;28;20029;-77
2023/05/18 02:45:06;;;;;;;6.47;2.80;;;;;;;10.97;100.00;101654.38;5016479;28;20125;-77
2023/05/18 02:47:35;;;;;;;3.88;2.53;;;;;;;10.96;100.00;101652.66;5046987;28;20516;-76
2023/05/18 02:50:05;;;;;;;7.15;3.00;;;;;;;10.94;100.00;101662.50;5052714;28;20404;-77
2023/05/18 02:52:35;;;;;;;4.45;2.50;;;;;;;10.94;100.00;101657.22;5038565;28;20499;-77
2023/05/18 02:55:06;;;;;;;6.80;2.72;;;;;;;10.92;100.00;101662.63;5040432;28;20102;-76
2023/05/18 02:58:02;;;;;;;5.40;2.63;;;;;;;10.89;100.00;101659.38;5016816;28;20132;-75
2023/05/18 03:00:53;;;;;;;4.75;2.78;;;;;;;10.84;100.00;101657.09;5040474;28;20625;-75
2023/05/18 03:03:22;;;;;;;5.28;2.75;;;;;;;10.78;100.00;101661.03;5039190;28;20026;-77
2023/05/18 03:05:52;;;;;;;6.30;3.15;;;;;;;10.77;100.00;101662.00;5038056;28;20040;-77
2023/05/18 03:08:22;;;;;;;5.63;3.10;;;;;;;10.72;100.00;101666.78;5035408;28;20037;-77
2023/05/18 03:10:51;;;;;;;13.73;3.47;;;;;;;10.67;100.00;101658.38;5037844;28;20037;-77
2023/05/18 03:13:19;;;;;;;5.78;2.80;;;;;;;10.62;100.00;101663.97;5035149;28;20515;-77
2023/05/18 03:15:48;;;;;;;3.83;2.33;;;;;;;10.62;100.00;101665.78;5038292;28;20568;-77
2023/05/18 03:18:16;;;;;;;6.18;3.00;;;;;;;10.51;100.00;101670.06;5059526;28;20051;-75
2023/05/18 03:20:45;;;;;;;5.05;2.75;;;;;;;10.54;100.00;101661.09;5043302;28;20264;-75
2023/05/18 03:23:13;;;;;;;7.70;3.00;;;;;;;10.49;100.00;101666.72;5044603;28;20033;-77
2023/05/18 03:25:42;;;;;;;9.73;3.45;;;;;;;10.45;100.00;101667.03;5022614;28;20033;-77
2023/05/18 03:28:09;;;;;;;8.77;3.30;;;;;;;10.41;100.00;101666.41;5040973;28;20094;-77
2023/05/18 03:30:38;;;;;;;7.78;3.90;;;;;;;10.38;100.00;101658.69;5028705;28;20060;-77
2023/05/18 03:33:06;;;;;;;7.13;3.53;;;;;;;10.34;100.00;101673.06;5042057;28;20032;-76
2023/05/18 03:35:35;;;;;;;7.97;3.42;;;;;;;10.33;100.00;101668.75;5036519;28;20032;-77
2023/05/18 03:38:03;;;;;;;6.05;3.70;;;;;;;10.29;100.00;101662.84;5037363;28;20037;-77
2023/05/18 03:40:31;;;;;;;5.03;3.67;;;;;;;10.29;100.00;101662.84;5046451;28;20090;-77
2023/05/18 03:42:59;;;;;;;7.32;4.10;;;;;;;10.25;100.00;101667.53;5042543;28;20550;-77
2023/05/18 03:45:27;;;;;;;8.57;3.47;;;;;;;10.23;100.00;101671.22;5011623;28;20390;-77
2023/05/18 03:47:55;;;;;;;6.25;3.55;;;;;;;10.20;100.00;101666.16;5044165;28;20037;-77
2023/05/18 03:50:23;;;;;;;10.32;3.97;;;;;;;10.22;100.00;101657.19;5027041;28;20045;-76
2023/05/18 03:52:52;;;;;;;5.88;3.38;;;;;;;10.21;100.00;101659.94;5032828;28;20037;-77
2023/05/18 03:55:22;;;;;;;10.65;4.20;;;;;;;10.20;100.00;101663.50;5035441;28;20041;-77
2023/05/18 03:57:52;;;;;;;7.05;3.85;;;;;;;10.17;100.00;101652.22;5034219;28;20142;-77
2023/05/18 04:00:22;;;;;;;9.02;3.95;;;;;;;10.13;100.00;101648.09;5039039;28;20073;-77
2023/05/18 04:02:50;;;;;;;8.88;3.67;;;;;;;10.10;100.00;101648.34;5034654;28;20033;-77
2023/05/18 04:05:23;;;;;;;7.80;4.20;;;;;;;10.01;100.00;101641.94;5034143;28;20366;-77
2023/05/18 04:07:56;;;;;;;5.78;3.47;;;;;;;10.00;100.00;101649.97;5037403;28;20108;-77
2023/05/18 04:10:25;;;;;;;8.75;4.10;;;;;;;9.99;100.00;101645.63;5039500;28;20045;-77
2023/05/18 04:12:53;;;;;;;7.53;4.55;;;;;;;9.95;100.00;101644.16;5039269;28;20029;-77
2023/05/18 04:15:20;;;;;;;8.98;4.22;;;;;;;9.93;100.00;101642.50;5029663;28;20068;-77
2023/05/18 04:17:52;;;;;;;8.82;4.30;;;;;;;9.88;100.00;101636.69;5041958;28;20035;-77
2023/05/18 04:20:22;;;;;;;9.82;3.70;;;;;;;9.83;100.00;101635.31;5036939;28;20060;-77
2023/05/18 04:22:52;;;;;;;7.43;3.90;;;;;;;9.77;100.00;101637.47;5041224;28;20043;-77
2023/05/18 04:25:26;;;;;;;6.30;3.60;;;;;;;9.69;100.00;101642.44;5048930;28;20515;-77
2023/05/18 04:27:57;;;;;;;7.18;3.83;;;;;;;9.63;100.00;101637.59;5049074;28;20036;-77
2023/05/18 04:30:28;;;;;;;8.05;3.58;;;;;;;9.54;100.00;101642.56;5047991;28;20041;-77
2023/05/18 04:32:58;;;;;;;10.90;3.25;;;;;;;9.43;100.00;101643.31;5048462;28;20017;-77
2023/05/18 04:35:30;;;;;;;10.48;3.78;;;;;;;9.38;100.00;101641.97;5047066;28;20029;-77
2023/05/18 04:38:01;;;;;;;5.70;3.20;;;;;;;9.32;100.00;101643.22;5048588;28;20028;-76
2023/05/18 04:40:32;;;;;;;9.00;3.60;;;;;;;9.29;100.00;101641.63;5031366;28;20070;-77
2023/05/18 04:43:02;;;;;;;4.22;3.10;;;;;;;9.29;100.00;101646.06;5001166;28;20500;-77
2023/05/18 04:45:32;;;;;;;6.18;3.33;;;;;;;9.27;100.00;101648.81;5046090;28;20021;-77
2023/05/18 04:48:00;;;;;;;6.20;3.05;;;;;;;9.30;100.00;101643.31;5038078;28;20808;-77
2023/05/18 04:50:28;;;;;;;5.45;3.25;;;;;;;9.32;100.00;101647.66;5047149;28;20612;-77
2023/05/18 04:53:00;;;;;;;10.07;3.60;;;;;;;9.26;100.00;101654.19;5041212;28;20032;-77
2023/05/18 04:55:32;;;;;;;6.05;3.05;;;;;;;9.25;100.00;101655.16;5046979;28;20086;-77
2023/05/18 04:58:09;;;;;;;5.60;3.60;;;;;;;9.25;100.00;101655.16;5037461;28;20065;-77
2023/05/18 05:00:39;;;;;;;7.90;4.00;;;;;;;9.28;100.00;101658.44;5044338;28;20037;-77
2023/05/18 05:03:09;;;;;;;7.82;3.92;;;;;;;9.33;100.00;101659.88;5022888;28;20476;-77
2023/05/18 05:05:39;;;;;;;6.80;3.78;;;;;;;9.37;100.00;101661.34;5043898;28;20036;-77
2023/05/18 05:08:09;;;;;;;6.70;3.53;;;;;;;9.44;100.00;101657.34;5047615;28;20044;-77
2023/05/18 05:10:39;;;;;;;9.70;3.58;;;;;;;9.40;100.00;101658.50;5042541;28;20036;-77
2023/05/18 05:13:09;;;;;;;6.38;3.80;;;;;;;9.32;100.00;101655.56;5027053;28;20040;-77
2023/05/18 05:15:38;;;;;;;5.97;4.03;;;;;;;9.27;100.00;101661.19;5042172;28;20045;-77
2023/05/18 05:18:08;;;;;;;9.65;3.42;;;;;;;9.29;100.00;101661.88;5030771;28;20063;-77
2023/05/18 05:20:37;;;;;;;5.28;3.13;;;;;;;9.35;100.00;101665.91;5045909;28;20095;-77
2023/05/18 05:23:05;;;;;;;5.90;3.30;;;;;;;9.35;100.00;101666.75;5043563;28;20025;-77
2023/05/18 05:25:35;;;;;;;7.97;3.45;;;;;;;9.42;100.00;101667.16;5022615;28;20091;-77
2023/05/18 05:28:04;;;;;;;7.22;3.35;;;;;;;9.49;100.00;101657.03;5047766;28;20088;-77
2023/05/18 05:30:34;;;;;;;9.52;3.38;;;;;;;9.55;100.00;101664.53;5030266;28;20029;-77
2023/05/18 05:33:02;;;;;;;5.75;3.83;;;;;;;9.57;100.00;101667.06;5017039;28;20083;-77
2023/05/18 05:35:30;;;;;;;6.53;3.30;;;;;;;9.62;100.00;101671.06;5034073;28;21005;-77
2023/05/18 05:37:58;;;;;;;7.20;3.33;;;;;;;9.61;100.00;101665.88;5040222;28;20436;-77
2023/05/18 05:40:27;;;;;;;6.55;3.72;;;;;;;9.54;100.00;101666.31;5044197;28;20040;-77
2023/05/18 05:42:55;;;;;;;6.63;3.58;;;;;;;9.54;100.00;101670.75;5030123;28;20032;-77
2023/05/18 05:45:22;;;;;;;6.68;2.90;;;;;;;9.63;100.00;101659.56;5026404;28;20051;-77
2023/05/18 05:47:55;;;;;;;7.13;3.78;;;;;;;9.70;100.00;101662.59;5039635;28;20039;-77
2023/05/18 05:50:26;;;;;;;9.07;3.83;;;;;;;9.83;100.00;101659.06;5044582;28;20032;-77
2023/05/18 05:52:59;;;;;;;6.97;3.33;;;;;;;9.90;100.00;101670.91;5028525;28;20037;-77
2023/05/18 05:55:30;;;;;;;6.28;3.65;;;;;;;9.92;100.00;101671.66;5041971;28;20040;-77
2023/05/18 05:58:01;;;;;;;10.20;3.33;;;;;;;9.95;100.00;101667.94;5021845;28;20041;-77
2023/05/18 06:00:31;;;;;;;7.95;4.03;;;;;;;10.02;100.00;101666.53;5045494;28;20044;-77
2023/05/18 06:03:03;;;;;;;7.53;3.83;;;;;;;10.14;100.00;101667.44;5027327;28;20029;-77
2023/05/18 06:05:37;;;;;;;7.47;3.70;;;;;;;10.27;100.00;101667.41;5045363;28;20029;-77
2023/05/18 06:08:08;;;;;;;8.75;3.60;;;;;;;10.36;100.00;101669.38;5047583;28;20810;-77
2023/05/18 06:10:39;;;;;;;7.43;3.25;;;;;;;10.47;100.00;101670.41;5044775;28;20029;-77
2023/05/18 06:13:09;;;;;;;9.70;3.63;;;;;;;10.56;100.00;101671.53;5040551;28;20588;-77
2023/05/18 06:15:45;;;;;;;6.22;3.50;;;;;;;10.64;100.00;101662.06;5032801;28;20461;-77
2023/05/18 06:18:15;;;;;;;9.55;3.58;;;;;;;10.73;100.00;101675.56;5019319;28;20381;-77
2023/05/18 06:20:46;;;;;;;6.70;3.50;;;;;;;10.81;100.00;101675.00;5045115;28;20048;-77
2023/05/18 06:23:21;;;;;;;7.40;4.00;;;;;;;10.86;100.00;101675.50;5047322;28;20697;-77
2023/05/18 06:26:10;;;;;;;8.02;3.22;;;;;;;10.97;100.00;101672.88;5032091;28;20036;-77
2023/05/18 06:29:02;;;;;;;4.78;3.05;;;;;;;11.06;100.00;101678.41;5034371;28;20045;-77
2023/05/18 06:31:51;;;;;;;6.53;3.35;;;;;;;11.17;100.00;101678.44;5021935;28;20439;-77
2023/05/18 06:34:37;;;;;;;8.77;3.25;;;;;;;11.28;100.00;101682.91;5050424;28;20097;-77
2023/05/18 06:37:07;;;;;;;6.55;3.72;;;;;;;11.43;100.00;101677.41;5048321;28;20537;-77
2023/05/18 06:39:39;;;;;;;6.15;3.05;;;;;;;11.52;100.00;101677.53;5050553;28;20028;-77
2023/05/18 06:42:10;;;;;;;9.25;3.58;;;;;;;11.56;100.00;101675.50;5047837;28;20029;-77
2023/05/18 06:44:49;;;;;;;8.50;4.10;;;;;;;11.65;100.00;101676.56;5049016;28;20040;-77
2023/05/18 06:47:19;;;;;;;8.40;3.75;;;;;;;11.68;100.00;101673.66;5049842;28;20048;-77
2023/05/18 06:49:48;;;;;;;6.28;3.03;;;;;;;11.74;100.00;101665.22;5043468;28;20064;-78
2023/05/18 06:52:16;;;;;;;8.02;2.92;;;;;;;11.75;100.00;101666.91;5030476;28;20067;-77
2023/05/18 06:54:45;;;;;;;7.45;2.30;;;;;;;11.73;100.00;101674.16;5064377;28;20032;-78
2023/05/18 06:57:12;;;;;;;6.20;2.10;;;;;;;11.72;100.00;101664.50;5041769;28;20071;-76
2023/05/18 06:59:40;;;;;;;4.93;2.15;;;;;;;11.75;100.00;101672.19;5036883;28;20033;-76
2023/05/18 07:02:08;;;;;;;6.88;2.60;;;;;;;11.76;100.00;101667.75;5048994;28;20041;-77
2023/05/18 07:04:36;;;;;;;8.05;2.53;;;;;;;11.84;100.00;101680.38;5044650;28;20040;-77
2023/05/18 07:07:04;;;;;;;4.93;2.20;;;;;;;11.84;100.00;101675.09;5040989;28;20033;-77
2023/05/18 07:09:32;;;;;;;4.47;2.40;;;;;;;11.85;100.00;101674.16;5040058;28;20035;-78
2023/05/18 07:11:59;;;;;;;7.13;2.30;;;;;;;11.89;100.00;101676.44;5045685;28;20025;-77
2023/05/18 07:14:27;;;;;;;5.97;2.38;;;;;;;11.94;100.00;101673.41;5048437;28;20475;-78
2023/05/18 07:16:55;;;;;;;11.13;2.58;;;;;;;11.90;100.00;101669.31;5039585;28;20489;-77
2023/05/18 07:19:23;;;;;;;4.50;1.95;;;;;;;11.91;100.00;101671.00;5036697;28;20044;-78
2023/05/18 07:21:51;;;;;;;6.30;2.50;;;;;;;11.96;100.00;101671.47;5038361;28;20075;-78
2023/05/18 07:24:20;;;;;;;6.00;2.30;;;;;;;12.17;100.00;101673.38;5041795;28;20032;-78
2023/05/18 07:26:48;;;;;;;8.70;1.77;;;;;;;12.33;100.00;101675.63;5047297;28;20451;-78
2023/05/18 07:29:15;;;;;;;7.50;2.45;;;;;;;12.66;100.00;101678.28;5043364;28;20040;-78
2023/05/18 07:31:43;;;;;;;5.65;2.17;;;;;;;12.86;100.00;101676.63;5042538;28;20394;-78
2023/05/18 07:34:13;;;;;;;7.13;2.17;;;;;;;13.00;100.00;101677.25;5037418;28;20052;-78
2023/05/18 07:36:43;;;;;;;3.22;1.75;;;;;;;12.99;100.00;101679.09;5036048;28;20029;-78
2023/05/18 07:39:17;;;;;;;6.25;1.92;;;;;;;13.07;100.00;101667.81;5038447;28;20044;-78
2023/05/18 07:41:48;;;;;;;11.93;1.85;;;;;;;13.23;100.00;101675.31;5037482;28;20061;-78
2023/05/18 07:44:17;;;;;;;9.15;1.75;;;;;;;13.35;100.00;101668.09;5047388;28;20040;-78
2023/05/18 07:46:44;;;;;;;3.85;1.70;;;;;;;13.41;100.00;101672.03;5047169;28;20021;-78
2023/05/18 07:49:12;;;;;;;5.85;1.63;;;;;;;13.43;100.00;101680.69;5039437;28;20410;-78
2023/05/18 07:51:41;;;;;;;10.05;2.40;;;;;;;13.48;100.00;101682.97;5036430;28;20025;-78
2023/05/18 07:54:09;;;;;;;9.63;1.92;;;;;;;13.50;100.00;101673.06;5035699;28;20037;-78
2023/05/18 07:56:36;;;;;;;6.32;1.90;;;;;;;13.48;100.00;101682.97;5032403;28;20044;-78
2023/05/18 07:59:04;;;;;;;9.02;2.03;;;;;;;13.43;100.00;101682.50;5034427;28;20525;-78
2023/05/18 08:01:32;;;;;;;5.80;2.03;;;;;;;13.36;100.00;101683.03;5022590;28;20037;-77
2023/05/18 08:04:00;;;;;;;8.00;2.35;;;;;;;13.52;100.00;101676.47;5038745;28;20139;-78
2023/05/18 08:06:28;;;;;;;4.57;2.10;;;;;;;13.64;100.00;101685.16;5036064;28;20033;-78
2023/05/18 08:08:56;;;;;;;4.32;1.65;;;;;;;13.80;100.00;101679.34;5037674;28;20525;-78
2023/05/18 08:11:24;;;;;;;7.55;2.05;;;;;;;13.93;100.00;101678.25;5043216;28;20064;-78
2023/05/18 08:13:52;;;;;;;4.97;1.50;;;;;;;14.07;100.00;101683.19;5042080;28;20033;-78
2023/05/18 08:16:20;;;;;;;5.85;2.00;;;;;;;14.24;100.00;101679.00;5044386;28;20025;-78
2023/05/18 08:18:49;;;;;;;4.45;1.35;;;;;;;14.33;100.00;101674.69;5042048;28;20055;-78
2023/05/18 08:21:18;;;;;;;3.45;1.17;;;;;;;14.25;100.00;101670.03;5044096;28;20107;-78
2023/05/18 08:23:46;;;;;;;2.60;1.10;;;;;;;14.16;100.00;101678.84;5045447;28;20036;-78
2023/05/18 08:26:14;;;;;;;8.25;2.08;;;;;;;14.08;100.00;101673.41;5038592;28;20083;-78
2023/05/18 08:28:44;;;;;;;4.43;1.55;;;;;;;14.04;100.00;101679.97;5037370;28;20033;-78
2023/05/18 08:31:14;;;;;;;5.35;1.52;;;;;;;14.16;100.00;101676.19;5043616;28;20037;-78
2023/05/18 08:33:44;;;;;;;5.45;1.33;;;;;;;14.26;100.00;101673.56;5043286;28;20388;-78
2023/05/18 08:36:14;;;;;;;4.40;1.30;;;;;;;14.31;100.00;101667.81;5042196;28;20040;-78
2023/05/18 08:38:44;;;;;;;4.30;1.30;;;;;;;14.30;100.00;101676.78;5041857;28;20056;-76
2023/05/18 08:41:33;;;;;;;4.15;1.25;;;;;;;14.29;100.00;101669.78;5042930;28;20117;-76
2023/05/18 08:44:25;;;;;;;5.97;1.58;;;;;;;14.27;100.00;101675.22;5043879;28;20040;-78
2023/05/18 08:46:56;;;;;;;5.13;1.48;;;;;;;14.20;100.00;101674.97;5044708;28;20724;-78
2023/05/18 08:49:27;;;;;;;5.60;1.48;;;;;;;14.12;100.00;101673.00;5046487;28;20051;-78
2023/05/18 08:52:00;;;;;;;3.70;1.17;;;;;;;14.13;100.00;101681.78;5038162;28;20047;-78
2023/05/18 08:54:31;;;;;;;2.85;1.23;;;;;;;14.14;100.00;101668.34;5034712;28;20537;-78
2023/05/18 08:57:03;;;;;;;5.30;1.33;;;;;;;14.20;100.00;101676.78;5042078;28;20028;-78
2023/05/18 08:59:36;;;;;;;3.50;1.05;;;;;;;14.25;100.00;101666.56;5032537;28;20059;-78
2023/05/18 09:02:06;;;;;;;4.07;1.00;;;;;;;14.38;100.00;101666.31;5043778;28;20104;-78
2023/05/18 09:04:36;;;;;;;3.90;0.98;;;;;;;14.49;100.00;101674.13;5035151;28;20040;-78
2023/05/18 09:07:07;;;;;;;5.85;0.90;;;;;;;14.63;100.00;101662.25;5027542;28;20172;-78
2023/05/18 09:09:38;;;;;;;4.15;1.13;;;;;;;14.86;100.00;101666.41;5044526;28;20489;-78
2023/05/18 09:12:09;;;;;;;6.32;1.35;;;;;;;14.93;100.00;101674.69;5043885;28;20143;-78
2023/05/18 09:14:41;;;;;;;3.63;1.08;;;;;;;14.93;100.00;101672.88;5046911;28;20037;-78
2023/05/18 09:17:09;;;;;;;4.05;1.13;;;;;;;14.93;100.00;101669.34;5047975;28;20108;-78
2023/05/18 09:19:37;;;;;;;5.40;1.38;;;;;;;14.90;100.00;101670.50;5040686;28;20043;-77
2023/05/18 09:22:05;;;;;;;3.47;0.90;;;;;;;14.93;100.00;101672.88;5063728;28;20436;-78
2023/05/18 09:24:33;;;;;;;4.88;0.88;;;;;;;14.91;100.00;101669.50;5044910;28;20119;-78
2023/05/18 09:27:03;;;;;;;4.00;0.90;;;;;;;14.91;100.00;101674.00;5067910;28;20036;-78
2023/05/18 09:29:31;;;;;;;4.20;1.33;;;;;;;14.86;100.00;101674.41;5044234;28;20039;-78
2023/05/18 09:32:05;;;;;;;6.57;1.30;;;;;;;14.89;100.00;101663.50;5039272;28;20477;-78
2023/05/18 09:34:41;;;;;;;3.70;1.08;;;;;;;14.90;100.00;101666.97;5041278;28;20033;-78
2023/05/18 09:37:11;;;;;;;5.13;1.27;;;;;;;14.92;100.00;101671.19;5036592;28;20116;-78
2023/05/18 09:39:42;;;;;;;6.47;1.25;;;;;;;14.93;100.00;101664.03;5057316;28;20033;-78
2023/05/18 09:42:12;;;;;;;3.55;1.42;;;;;;;14.92;100.00;101663.22;5038576;28;20029;-78
2023/05/18 09:44:41;;;;;;;5.47;1.25;;;;;;;14.93;100.00;101669.34;5046357;28;20033;-78
2023/05/18 09:47:10;;;;;;;2.50;0.85;;;;;;;15.03;100.00;101672.00;5043080;28;20035;-78
2023/05/18 09:49:40;;;;;;;4.50;1.10;;;;;;;15.08;100.00;101670.59;5043837;28;20072;-78
2023/05/18 09:52:08;;;;;;;10.88;1.45;;;;;;;15.13;100.00;101672.81;5056208;28;20039;-79
2023/05/18 09:54:36;;;;;;;8.15;1.67;;;;;;;15.10;100.00;101673.94;5035715;28;20036;-78
2023/05/18 09:57:06;;;;;;;3.60;1.10;;;;;;;15.07;100.00;101676.06;5035289;28;20040;-78
2023/05/18 09:59:36;;;;;;;2.58;0.95;;;;;;;15.08;100.00;101662.59;5031133;28;20022;-78
2023/05/18 10:02:07;;;;;;;3.40;1.23;;;;;;;15.10;100.00;101667.78;5053898;28;20040;-78
2023/05/18 10:04:37;;;;;;;2.25;1.00;;;;;;;15.16;100.00;101669.03;5043230;28;20032;-78
2023/05/18 10:07:08;;;;;;;7.18;1.13;;;;;;;15.17;100.00;101668.91;5041778;28;20124;-78
2023/05/18 10:09:36;;;;;;;5.00;1.10;;;;;;;15.02;100.00;101654.38;5041436;28;20115;-78
2023/05/18 10:12:17;;;;;;;3.63;1.23;;;;;;;15.05;100.00;101646.09;5038712;28;20025;-78
2023/05/18 10:14:48;;;;;;;3.75;1.48;;;;;;;15.12;100.00;101655.16;5020153;28;20382;-78
2023/05/18 10:17:16;;;;;;;2.22;1.33;;;;;;;15.28;100.00;101649.22;5039906;28;20129;-78
2023/05/18 10:19:44;;;;;;;7.32;1.40;;;;;;;15.50;100.00;101648.03;5039710;28;20043;-79
2023/05/18 10:22:18;;;;;;;4.53;1.50;;;;;;;15.69;100.00;101648.91;5039846;28;20025;-78
2023/05/18 10:24:51;;;;;;;6.45;1.63;;;;;;;15.78;100.00;101654.34;5043217;28;20120;-78
2023/05/18 10:27:27;;;;;;;5.65;1.48;;;;;;;15.89;100.00;101654.13;5043694;28;20048;-78
2023/05/18 10:30:02;;;;;;;3.08;1.52;;;;;;;15.93;100.00;101658.16;5067341;28;20029;-78
2023/05/18 10:32:35;;;;;;;4.30;1.58;;;;;;;15.87;100.00;101658.78;5040270;28;20033;-78
2023/05/18 10:35:07;;;;;;;2.95;1.38;;;;;;;15.84;100.00;101657.25;5043015;28;20052;-78
2023/05/18 10:37:41;;;;;;;2.95;1.30;;;;;;;15.82;100.00;101661.88;5042436;28;20140;-78
2023/05/18 10:40:14;;;;;;;3.40;1.40;;;;;;;15.79;100.00;101651.53;5038817;28;20064;-78
2023/05/18 10:42:46;;;;;;;6.38;1.40;;;;;;;15.86;100.00;101652.59;5062228;28;20034;-78
2023/05/18 10:45:16;;;;;;;2.80;1.08;;;;;;;16.05;100.00;101660.66;5040005;28;20129;-78
2023/05/18 10:47:52;;;;;;;3.28;1.15;;;;;;;16.12;100.00;101657.22;5035862;28;20086;-78
2023/05/18 10:50:23;;;;;;;4.07;1.20;;;;;;;16.23;100.00;101648.16;5043118;28;20040;-78
2023/05/18 10:52:53;;;;;;;4.35;1.23;;;;;;;16.41;100.00;101652.66;5043176;28;20033;-77
2023/05/18 10:55:21;;;;;;;3.85;1.58;;;;;;;16.53;100.00;101647.91;5038931;28;20497;-78
2023/05/18 10:57:55;;;;;;;3.88;1.48;;;;;;;16.67;100.00;101651.03;5045908;28;20037;-78
2023/05/18 11:00:22;;;;;;;6.85;1.63;;;;;;;16.74;100.00;101647.59;5044014;28;20032;-78
2023/05/18 11:02:52;;;;;;;5.45;1.90;;;;;;;16.86;100.00;101642.84;5040351;28;20094;-78
2023/05/18 11:05:26;;;;;;;5.80;1.67;;;;;;;16.89;100.00;101646.19;5042044;28;20059;-78
2023/05/18 11:08:04;;;;;;;5.45;1.63;;;;;;;16.87;100.00;101649.00;5045643;28;20056;-78
2023/05/18 11:10:48;;;;;;;5.72;1.90;;;;;;;16.89;100.00;101652.38;5035628;28;20045;-78
2023/05/18 11:13:17;;;;;;;5.07;2.13;;;;;;;16.94;100.00;101652.75;5045449;28;20531;-78
2023/05/18 11:15:53;;;;;;;3.58;1.42;;;;;;;16.97;100.00;101649.75;5046682;28;20044;-78
2023/05/18 11:18:32;;;;;;;7.28;2.00;;;;;;;16.83;100.00;101650.31;5039797;28;20041;-78
2023/05/18 11:21:00;;;;;;;4.13;1.50;;;;;;;16.68;100.00;101653.56;5046074;28;20088;-78
2023/05/18 11:23:37;;;;;;;3.97;1.48;;;;;;;16.76;100.00;101649.25;5045546;28;20107;-78
2023/05/18 11:26:15;;;;;;;4.88;1.70;;;;;;;16.68;100.00;101647.38;5043857;28;20052;-78
2023/05/18 11:28:45;;;;;;;5.13;1.40;;;;;;;16.60;100.00;101648.13;5046904;28;20044;-78
2023/05/18 11:31:18;;;;;;;5.07;1.70;;;;;;;16.58;100.00;101653.63;5043668;28;20057;-78
2023/05/18 11:33:47;;;;;;;8.25;1.55;;;;;;;16.61;100.00;101650.66;5044935;28;20077;-75